createdAt,value
2017-10-17T00:00:36.476Z,0
2017-10-17T00:01:36.425Z,0
2017-10-17T00:02:36.466Z,0
2017-10-17T00:03:36.436Z,0
2017-10-17T00:04:36.112Z,0
2017-10-17T00:05:36.400Z,0
2017-10-17T00:06:36.081Z,0
2017-10-17T00:07:36.400Z,0
2017-10-17T00:08:36.430Z,0
2017-10-17T00:09:36.411Z,0
2017-10-17T00:10:35.721Z,0
2017-10-17T00:11:36.048Z,0
2017-10-17T00:12:36.369Z,0
2017-10-17T00:13:36.057Z,0
2017-10-17T00:14:36.362Z,0
2017-10-17T00:15:35.712Z,0
2017-10-17T00:16:36.331Z,0
2017-10-17T00:17:36.372Z,0
2017-10-17T00:18:36.321Z,0
2017-10-17T00:19:36.344Z,0
2017-10-17T00:20:36.310Z,0
2017-10-17T00:21:36.349Z,0
2017-10-17T00:22:36.327Z,0
2017-10-17T00:23:36.323Z,0
2017-10-17T00:24:35.950Z,0
2017-10-17T00:25:35.987Z,0
2017-10-17T00:26:36.286Z,0
2017-10-17T00:27:35.946Z,0
2017-10-17T00:28:36.263Z,0
2017-10-17T00:29:36.296Z,0
2017-10-17T00:30:35.935Z,0
2017-10-17T00:31:36.294Z,0
2017-10-17T00:32:36.239Z,0
2017-10-17T00:33:36.277Z,0
2017-10-17T00:34:36.226Z,0
2017-10-17T00:35:36.254Z,0
2017-10-17T00:36:36.216Z,0
2017-10-17T00:37:36.253Z,0
2017-10-17T00:38:36.244Z,0
2017-10-17T00:39:35.896Z,0
2017-10-17T00:40:36.196Z,0
2017-10-17T00:41:36.195Z,0
2017-10-17T00:42:36.211Z,0
2017-10-17T00:43:36.204Z,0
2017-10-17T00:44:36.219Z,0
2017-10-17T00:45:35.841Z,0
2017-10-17T00:46:36.188Z,0
2017-10-17T00:47:36.152Z,0
2017-10-17T00:48:36.188Z,0
2017-10-17T00:49:36.149Z,0
2017-10-17T00:50:36.161Z,0
2017-10-17T00:51:35.829Z,0
2017-10-17T00:52:35.794Z,0
2017-10-17T00:53:36.159Z,0
2017-10-17T00:54:36.141Z,0
2017-10-17T00:55:35.818Z,0
2017-10-17T00:56:36.099Z,0
2017-10-17T00:57:35.763Z,0
2017-10-17T00:58:36.117Z,0
2017-10-17T00:59:35.776Z,0
2017-10-17T01:00:36.122Z,0
2017-10-17T01:01:36.092Z,0
2017-10-17T01:02:36.094Z,0
2017-10-17T01:03:35.728Z,0
2017-10-17T01:04:36.095Z,0
2017-10-17T01:05:36.050Z,0
2017-10-17T01:06:35.749Z,0
2017-10-17T01:07:36.048Z,0
2017-10-17T01:08:36.100Z,0
2017-10-17T01:09:35.692Z,0
2017-10-17T01:10:36.037Z,0
2017-10-17T01:11:36.026Z,0
2017-10-17T01:12:36.050Z,0
2017-10-17T01:13:36.035Z,0
2017-10-17T01:14:36.014Z,0
2017-10-17T01:15:35.666Z,0
2017-10-17T01:16:36.024Z,0
2017-10-17T01:17:35.991Z,0
2017-10-17T01:18:35.995Z,0
2017-10-17T01:19:35.963Z,0
2017-10-17T01:20:35.665Z,0
2017-10-17T01:21:35.958Z,0
2017-10-17T01:22:35.997Z,0
2017-10-17T01:23:35.630Z,0
2017-10-17T01:24:35.978Z,0
2017-10-17T01:25:35.599Z,0
2017-10-17T01:26:35.944Z,0
2017-10-17T01:27:35.945Z,0
2017-10-17T01:28:35.971Z,0
2017-10-17T01:29:35.944Z,0
2017-10-17T01:30:35.587Z,0
2017-10-17T01:31:35.571Z,0
2017-10-17T01:32:35.888Z,0
2017-10-17T01:33:35.584Z,0
2017-10-17T01:34:35.556Z,0
2017-10-17T01:35:35.931Z,0
2017-10-17T01:36:35.864Z,0
2017-10-17T01:37:35.902Z,0
2017-10-17T01:38:35.520Z,0
2017-10-17T01:39:35.545Z,0
2017-10-17T01:40:35.846Z,0
2017-10-17T01:41:35.876Z,0
2017-10-17T01:42:35.515Z,0
2017-10-17T01:43:35.498Z,0
2017-10-17T01:44:35.525Z,0
2017-10-17T01:45:35.517Z,0
2017-10-17T01:46:35.822Z,0
2017-10-17T01:47:36.061Z,0
2017-10-17T01:48:35.459Z,0
2017-10-17T01:49:35.487Z,0
2017-10-17T01:50:35.797Z,0
2017-10-17T01:51:35.819Z,0
2017-10-17T01:52:35.439Z,0
2017-10-17T01:53:35.464Z,0
2017-10-17T01:54:35.426Z,0
2017-10-17T01:55:35.448Z,0
2017-10-17T01:56:35.744Z,0
2017-10-17T01:57:35.449Z,0
2017-10-17T01:58:35.421Z,0
2017-10-17T01:59:35.757Z,0
2017-10-17T02:00:35.394Z,0
2017-10-17T02:01:35.725Z,0
2017-10-17T02:02:35.736Z,0
2017-10-17T02:03:35.402Z,0
2017-10-17T02:04:35.744Z,0
2017-10-17T02:05:35.360Z,0
2017-10-17T02:06:35.710Z,0
2017-10-17T02:07:35.704Z,0
2017-10-17T02:08:35.682Z,0
2017-10-17T02:09:35.701Z,0
2017-10-17T02:10:35.672Z,0
2017-10-17T02:11:35.685Z,0
2017-10-17T02:12:35.643Z,0
2017-10-17T02:13:35.730Z,0
2017-10-17T02:14:34.990Z,0
2017-10-17T02:15:35.658Z,0
2017-10-17T02:16:35.291Z,0
2017-10-17T02:17:35.625Z,0
2017-10-17T02:18:35.895Z,0
2017-10-17T02:19:35.637Z,0
2017-10-17T02:20:35.596Z,0
2017-10-17T02:21:35.295Z,0
2017-10-17T02:22:35.603Z,0
2017-10-17T02:23:35.621Z,0
2017-10-17T02:24:35.570Z,0
2017-10-17T02:25:35.606Z,0
2017-10-17T02:26:35.225Z,0
2017-10-17T02:27:35.578Z,0
2017-10-17T02:28:35.212Z,0
2017-10-17T02:29:35.591Z,0
2017-10-17T02:30:35.561Z,0
2017-10-17T02:31:35.573Z,0
2017-10-17T02:32:35.519Z,0
2017-10-17T02:33:35.565Z,0
2017-10-17T02:34:35.628Z,0
2017-10-17T02:35:35.529Z,0
2017-10-17T02:36:35.499Z,0
2017-10-17T02:37:35.532Z,0
2017-10-17T02:38:35.499Z,0
2017-10-17T02:39:34.849Z,0
2017-10-17T02:40:35.155Z,0
2017-10-17T02:41:35.506Z,0
2017-10-17T02:42:35.124Z,0
2017-10-17T02:43:35.486Z,0
2017-10-17T02:44:35.123Z,0
2017-10-17T02:45:35.144Z,0
2017-10-17T02:46:35.466Z,0
2017-10-17T02:47:35.454Z,0
2017-10-17T02:48:35.417Z,0
2017-10-17T02:49:35.329Z,0
2017-10-17T02:50:35.444Z,0
2017-10-17T02:51:35.098Z,0
2017-10-17T02:52:35.440Z,0
2017-10-17T02:53:35.393Z,0
2017-10-17T02:54:35.411Z,0
2017-10-17T02:55:35.383Z,0
2017-10-17T02:56:35.409Z,0
2017-10-17T02:57:35.363Z,0
2017-10-17T02:58:35.379Z,0
2017-10-17T02:59:35.379Z,0
2017-10-17T03:00:35.004Z,0
2017-10-17T03:01:35.379Z,0
2017-10-17T03:02:35.368Z,0
2017-10-17T03:03:35.010Z,0
2017-10-17T03:04:35.313Z,0
2017-10-17T03:05:35.305Z,0
2017-10-17T03:06:34.987Z,0
2017-10-17T03:07:35.331Z,0
2017-10-17T03:08:35.327Z,0
2017-10-17T03:09:34.953Z,0
2017-10-17T03:10:34.968Z,0
2017-10-17T03:11:35.275Z,0
2017-10-17T03:12:35.302Z,0
2017-10-17T03:13:34.591Z,0
2017-10-17T03:14:35.289Z,0
2017-10-17T03:15:35.254Z,0
2017-10-17T03:16:35.273Z,0
2017-10-17T03:17:35.222Z,0
2017-10-17T03:18:35.240Z,0
2017-10-17T03:19:35.237Z,0
2017-10-17T03:20:34.576Z,0
2017-10-17T03:21:35.240Z,0
2017-10-17T03:22:35.209Z,0
2017-10-17T03:23:35.195Z,0
2017-10-17T03:24:35.221Z,0
2017-10-17T03:25:35.210Z,0
2017-10-17T03:26:35.185Z,0
2017-10-17T03:27:35.154Z,0
2017-10-17T03:28:35.201Z,0
2017-10-17T03:29:35.149Z,0
2017-10-17T03:30:34.851Z,0
2017-10-17T03:31:35.150Z,0
2017-10-17T03:32:35.174Z,0
2017-10-17T03:33:35.107Z,0
2017-10-17T03:34:34.796Z,0
2017-10-17T03:35:34.779Z,0
2017-10-17T03:36:34.801Z,0
2017-10-17T03:37:35.127Z,0
2017-10-17T03:38:35.101Z,0
2017-10-17T03:39:35.091Z,0
2017-10-17T03:40:35.067Z,0
2017-10-17T03:41:35.100Z,0
2017-10-17T03:42:35.076Z,0
2017-10-17T03:43:35.087Z,0
2017-10-17T03:44:34.370Z,0
2017-10-17T03:45:34.740Z,0
2017-10-17T03:46:35.019Z,0
2017-10-17T03:47:35.052Z,0
2017-10-17T03:48:35.007Z,0
2017-10-17T03:49:35.047Z,0
2017-10-17T03:50:35.011Z,0
2017-10-17T03:51:34.998Z,0
2017-10-17T03:52:35.275Z,0
2017-10-17T03:53:34.674Z,0
2017-10-17T03:54:34.979Z,0
2017-10-17T03:55:34.979Z,0
2017-10-17T03:56:34.956Z,0
2017-10-17T03:57:34.654Z,0
2017-10-17T03:58:34.622Z,28
2017-10-17T03:59:34.973Z,40
2017-10-17T04:00:34.932Z,40
2017-10-17T04:01:34.962Z,40
2017-10-17T04:02:34.935Z,40
2017-10-17T04:03:34.921Z,40
2017-10-17T04:04:34.944Z,40
2017-10-17T04:05:34.885Z,40
2017-10-17T04:06:34.904Z,44
2017-10-17T04:07:34.891Z,44
2017-10-17T04:08:34.914Z,44
2017-10-17T04:09:34.897Z,44
2017-10-17T04:10:34.534Z,44
2017-10-17T04:11:34.854Z,0
2017-10-17T04:12:34.840Z,0
2017-10-17T04:13:34.194Z,0
2017-10-17T04:14:34.839Z,0
2017-10-17T04:15:34.825Z,0
2017-10-17T04:16:34.520Z,0
2017-10-17T04:17:34.807Z,0
2017-10-17T04:18:34.838Z,0
2017-10-17T04:19:34.798Z,0
2017-10-17T04:20:34.833Z,0
2017-10-17T04:21:34.779Z,0
2017-10-17T04:22:34.449Z,0
2017-10-17T04:23:34.693Z,0
2017-10-17T04:24:34.123Z,0
2017-10-17T04:25:34.454Z,0
2017-10-17T04:26:34.755Z,0
2017-10-17T04:27:34.411Z,0
2017-10-17T04:28:34.728Z,0
2017-10-17T04:29:34.426Z,0
2017-10-17T04:30:34.729Z,0
2017-10-17T04:31:34.417Z,0
2017-10-17T04:32:34.698Z,0
2017-10-17T04:33:34.729Z,0
2017-10-17T04:34:34.678Z,0
2017-10-17T04:35:34.037Z,0
2017-10-17T04:36:34.335Z,0
2017-10-17T04:37:34.366Z,0
2017-10-17T04:38:34.676Z,0
2017-10-17T04:39:34.685Z,0
2017-10-17T04:40:33.972Z,0
2017-10-17T04:41:34.329Z,0
2017-10-17T04:42:34.644Z,0
2017-10-17T04:43:34.630Z,0
2017-10-17T04:44:34.620Z,0
2017-10-17T04:45:34.647Z,0
2017-10-17T04:46:34.613Z,0
2017-10-17T04:47:34.681Z,0
2017-10-17T04:48:34.579Z,0
2017-10-17T04:49:33.601Z,0
2017-10-17T04:50:34.563Z,0
2017-10-17T04:51:34.248Z,0
2017-10-17T04:52:34.548Z,0
2017-10-17T04:53:34.597Z,0
2017-10-17T04:54:34.810Z,0
2017-10-17T04:55:34.230Z,0
2017-10-17T04:56:34.539Z,0
2017-10-17T04:57:34.531Z,4
2017-10-17T04:58:33.858Z,4
2017-10-17T04:59:34.527Z,0
2017-10-17T05:00:34.535Z,0
2017-10-17T05:01:34.157Z,4
2017-10-17T05:02:34.503Z,0
2017-10-17T05:03:34.470Z,4
2017-10-17T05:04:34.170Z,4
2017-10-17T05:05:34.122Z,4
2017-10-17T05:06:34.472Z,4
2017-10-17T05:07:34.137Z,8
2017-10-17T05:08:34.430Z,8
2017-10-17T05:09:34.470Z,12
2017-10-17T05:10:34.112Z,12
2017-10-17T05:11:34.440Z,16
2017-10-17T05:12:34.068Z,20
2017-10-17T05:13:34.070Z,24
2017-10-17T05:14:34.418Z,28
2017-10-17T05:15:34.080Z,32
2017-10-17T05:16:34.419Z,40
2017-10-17T05:17:33.713Z,44
2017-10-17T05:18:34.055Z,52
2017-10-17T05:19:34.355Z,60
2017-10-17T05:20:34.389Z,72
2017-10-17T05:21:34.005Z,84
2017-10-17T05:22:34.376Z,96
2017-10-17T05:23:34.332Z,108
2017-10-17T05:24:34.020Z,124
2017-10-17T05:25:34.614Z,140
2017-10-17T05:26:34.305Z,156
2017-10-17T05:27:34.298Z,172
2017-10-17T05:28:34.328Z,188
2017-10-17T05:29:33.972Z,208
2017-10-17T05:30:34.287Z,232
2017-10-17T05:31:33.600Z,252
2017-10-17T05:32:33.960Z,276
2017-10-17T05:33:34.243Z,300
2017-10-17T05:34:34.262Z,324
2017-10-17T05:35:33.894Z,356
2017-10-17T05:36:34.272Z,388
2017-10-17T05:37:34.219Z,420
2017-10-17T05:38:33.909Z,448
2017-10-17T05:39:33.882Z,480
2017-10-17T05:40:34.245Z,516
2017-10-17T05:41:34.188Z,560
2017-10-17T05:42:34.188Z,600
2017-10-17T05:43:34.173Z,648
2017-10-17T05:44:34.204Z,700
2017-10-17T05:45:33.831Z,756
2017-10-17T05:46:34.168Z,808
2017-10-17T05:47:33.836Z,868
2017-10-17T05:48:33.833Z,924
2017-10-17T05:49:33.458Z,972
2017-10-17T05:50:34.157Z,1024
2017-10-17T05:51:34.123Z,1076
2017-10-17T05:52:33.802Z,1140
2017-10-17T05:53:34.089Z,1204
2017-10-17T05:54:33.459Z,1272
2017-10-17T05:55:33.752Z,1344
2017-10-17T05:56:34.115Z,1412
2017-10-17T05:57:33.397Z,1480
2017-10-17T05:58:33.745Z,1552
2017-10-17T05:59:34.075Z,1628
2017-10-17T06:00:34.034Z,1700
2017-10-17T06:01:34.033Z,1784
2017-10-17T06:02:33.711Z,1872
2017-10-17T06:03:34.046Z,1964
2017-10-17T06:04:34.066Z,2056
2017-10-17T06:05:34.014Z,2160
2017-10-17T06:06:34.022Z,2284
2017-10-17T06:07:33.990Z,2416
2017-10-17T06:08:33.356Z,2556
2017-10-17T06:09:33.973Z,2696
2017-10-17T06:10:34.004Z,2828
2017-10-17T06:11:33.968Z,2964
2017-10-17T06:12:33.986Z,3112
2017-10-17T06:13:33.944Z,3252
2017-10-17T06:14:33.959Z,3372
2017-10-17T06:15:33.935Z,3476
2017-10-17T06:16:33.966Z,3572
2017-10-17T06:17:33.952Z,3668
2017-10-17T06:18:33.580Z,3732
2017-10-17T06:19:33.923Z,3844
2017-10-17T06:20:33.887Z,3940
2017-10-17T06:21:33.585Z,3948
2017-10-17T06:22:33.899Z,4068
2017-10-17T06:23:33.879Z,4240
2017-10-17T06:24:33.563Z,4404
2017-10-17T06:25:33.523Z,4480
2017-10-17T06:26:33.223Z,4524
2017-10-17T06:27:33.868Z,4460
2017-10-17T06:28:33.838Z,4476
2017-10-17T06:29:33.829Z,4588
2017-10-17T06:30:33.840Z,4632
2017-10-17T06:31:33.835Z,4916
2017-10-17T06:32:33.851Z,5208
2017-10-17T06:33:33.850Z,5308
2017-10-17T06:34:33.813Z,5580
2017-10-17T06:35:33.796Z,5680
2017-10-17T06:36:33.780Z,5880
2017-10-17T06:37:33.143Z,6204
2017-10-17T06:38:33.800Z,6436
2017-10-17T06:39:33.479Z,6548
2017-10-17T06:40:33.760Z,6652
2017-10-17T06:41:33.797Z,6880
2017-10-17T06:42:33.749Z,6916
2017-10-17T06:43:33.102Z,7252
2017-10-17T06:44:33.408Z,7420
2017-10-17T06:45:33.775Z,7508
2017-10-17T06:46:33.411Z,7688
2017-10-17T06:47:33.419Z,7888
2017-10-17T06:48:33.717Z,8008
2017-10-17T06:49:33.751Z,8160
2017-10-17T06:50:33.388Z,8320
2017-10-17T06:51:33.705Z,8452
2017-10-17T06:52:33.366Z,8448
2017-10-17T06:53:33.400Z,8448
2017-10-17T06:54:33.704Z,8392
2017-10-17T06:55:33.728Z,8308
2017-10-17T06:56:33.674Z,8304
2017-10-17T06:57:33.720Z,8256
2017-10-17T06:58:33.334Z,8620
2017-10-17T06:59:33.944Z,8788
2017-10-17T07:00:33.661Z,8776
2017-10-17T07:01:33.705Z,8828
2017-10-17T07:02:33.341Z,8932
2017-10-17T07:03:33.677Z,9068
2017-10-17T07:04:33.314Z,9168
2017-10-17T07:05:33.642Z,9280
2017-10-17T07:06:33.669Z,9448
2017-10-17T07:07:33.662Z,9548
2017-10-17T07:08:33.678Z,9724
2017-10-17T07:09:33.647Z,9792
2017-10-17T07:10:33.651Z,9776
2017-10-17T07:11:33.618Z,9760
2017-10-17T07:12:33.324Z,9808
2017-10-17T07:13:33.296Z,10184
2017-10-17T07:14:33.638Z,10384
2017-10-17T07:15:33.644Z,10336
2017-10-17T07:16:33.602Z,10428
2017-10-17T07:17:33.651Z,10184
2017-10-17T07:18:33.627Z,10160
2017-10-17T07:19:33.292Z,10328
2017-10-17T07:20:33.620Z,10712
2017-10-17T07:21:33.594Z,11016
2017-10-17T07:22:33.627Z,11316
2017-10-17T07:23:33.622Z,11528
2017-10-17T07:24:33.630Z,11704
2017-10-17T07:25:33.250Z,11904
2017-10-17T07:26:33.610Z,12076
2017-10-17T07:27:33.572Z,11976
2017-10-17T07:28:33.291Z,10160
2017-10-17T07:29:33.246Z,7616
2017-10-17T07:30:33.861Z,6912
2017-10-17T07:31:33.595Z,6856
2017-10-17T07:32:33.274Z,6828
2017-10-17T07:33:33.235Z,6808
2017-10-17T07:34:33.606Z,6792
2017-10-17T07:35:32.905Z,6772
2017-10-17T07:36:33.265Z,6752
2017-10-17T07:37:33.596Z,6732
2017-10-17T07:38:33.566Z,6724
2017-10-17T07:39:33.561Z,6704
2017-10-17T07:40:33.589Z,6676
2017-10-17T07:41:33.212Z,6656
2017-10-17T07:42:33.562Z,6628
2017-10-17T07:43:33.531Z,6600
2017-10-17T07:44:33.587Z,6584
2017-10-17T07:45:33.205Z,6552
2017-10-17T07:46:33.259Z,6536
2017-10-17T07:47:33.207Z,6504
2017-10-17T07:48:33.249Z,6484
2017-10-17T07:49:33.521Z,6456
2017-10-17T07:50:33.531Z,6444
2017-10-17T07:51:33.523Z,6432
2017-10-17T07:52:33.223Z,6420
2017-10-17T07:53:33.542Z,6416
2017-10-17T07:54:32.861Z,6412
2017-10-17T07:55:32.842Z,6396
2017-10-17T07:56:33.502Z,6376
2017-10-17T07:57:33.196Z,6356
2017-10-17T07:58:33.520Z,6344
2017-10-17T07:59:33.537Z,6320
2017-10-17T08:00:33.181Z,6316
2017-10-17T08:01:33.437Z,6300
2017-10-17T08:02:33.477Z,6292
2017-10-17T08:03:32.836Z,6284
2017-10-17T08:04:33.135Z,6280
2017-10-17T08:05:33.510Z,6268
2017-10-17T08:06:33.477Z,6268
2017-10-17T08:07:32.800Z,6264
2017-10-17T08:08:33.165Z,6260
2017-10-17T08:09:33.496Z,6252
2017-10-17T08:10:33.154Z,6244
2017-10-17T08:11:33.462Z,6224
2017-10-17T08:12:33.441Z,6228
2017-10-17T08:13:33.484Z,6228
2017-10-17T08:14:33.116Z,6224
2017-10-17T08:15:33.142Z,6224
2017-10-17T08:16:33.424Z,6216
2017-10-17T08:17:33.673Z,6212
2017-10-17T08:18:33.086Z,6208
2017-10-17T08:19:33.440Z,6196
2017-10-17T08:20:33.078Z,6180
2017-10-17T08:21:33.128Z,6160
2017-10-17T08:22:33.097Z,6152
2017-10-17T08:23:33.432Z,6144
2017-10-17T08:24:32.418Z,6152
2017-10-17T08:25:33.396Z,6136
2017-10-17T08:26:33.415Z,6120
2017-10-17T08:27:33.440Z,6108
2017-10-17T08:28:33.097Z,6104
2017-10-17T08:29:33.057Z,6108
2017-10-17T08:30:33.065Z,6100
2017-10-17T08:31:33.424Z,6092
2017-10-17T08:32:33.627Z,6072
2017-10-17T08:33:33.413Z,6060
2017-10-17T08:34:33.361Z,6044
2017-10-17T08:35:33.396Z,6048
2017-10-17T08:36:33.023Z,6036
2017-10-17T08:37:33.061Z,6032
2017-10-17T08:38:33.043Z,6024
2017-10-17T08:39:33.385Z,6020
2017-10-17T08:40:33.007Z,6012
2017-10-17T08:41:33.012Z,6012
2017-10-17T08:42:32.695Z,6000
2017-10-17T08:43:33.373Z,5984
2017-10-17T08:44:33.367Z,5980
2017-10-17T08:45:33.325Z,5972
2017-10-17T08:46:33.349Z,5972
2017-10-17T08:47:33.323Z,5952
2017-10-17T08:48:33.024Z,5928
2017-10-17T08:49:33.317Z,5920
2017-10-17T08:50:33.357Z,5920
2017-10-17T08:51:33.321Z,5908
2017-10-17T08:52:33.349Z,5896
2017-10-17T08:53:33.513Z,5872
2017-10-17T08:54:33.322Z,5868
2017-10-17T08:55:33.302Z,5852
2017-10-17T08:56:32.995Z,5848
2017-10-17T08:57:32.642Z,5836
2017-10-17T08:58:33.314Z,5832
2017-10-17T08:59:33.317Z,5832
2017-10-17T09:00:33.320Z,5820
2017-10-17T09:01:32.949Z,5808
2017-10-17T09:02:32.990Z,5804
2017-10-17T09:03:33.296Z,5800
2017-10-17T09:04:33.306Z,5780
2017-10-17T09:05:33.269Z,5760
2017-10-17T09:06:33.318Z,5760
2017-10-17T09:07:33.263Z,5744
2017-10-17T09:08:33.296Z,5740
2017-10-17T09:09:33.250Z,5732
2017-10-17T09:10:33.301Z,5712
2017-10-17T09:11:33.270Z,5688
2017-10-17T09:12:32.904Z,5668
2017-10-17T09:13:33.235Z,5652
2017-10-17T09:14:33.266Z,5628
2017-10-17T09:15:33.261Z,5600
2017-10-17T09:16:33.287Z,5588
2017-10-17T09:17:32.894Z,5564
2017-10-17T09:18:33.246Z,5536
2017-10-17T09:19:33.220Z,5520
2017-10-17T09:20:33.268Z,5496
2017-10-17T09:21:33.219Z,5476
2017-10-17T09:22:32.899Z,5448
2017-10-17T09:23:33.241Z,5436
2017-10-17T09:24:33.203Z,5408
2017-10-17T09:25:33.248Z,5392
2017-10-17T09:26:33.229Z,5376
2017-10-17T09:27:33.708Z,5364
2017-10-17T09:28:33.200Z,5340
2017-10-17T09:29:33.194Z,5320
2017-10-17T09:30:33.420Z,5300
2017-10-17T09:31:32.547Z,5288
2017-10-17T09:32:33.228Z,5272
2017-10-17T09:33:33.229Z,5264
2017-10-17T09:34:33.440Z,5244
2017-10-17T09:35:33.178Z,5236
2017-10-17T09:36:32.881Z,5224
2017-10-17T09:37:32.840Z,5220
2017-10-17T09:38:33.264Z,5208
2017-10-17T09:39:33.174Z,5200
2017-10-17T09:40:33.206Z,5196
2017-10-17T09:41:33.156Z,5184
2017-10-17T09:42:33.174Z,5168
2017-10-17T09:43:33.175Z,5160
2017-10-17T09:44:33.197Z,5156
2017-10-17T09:45:33.187Z,5136
2017-10-17T09:46:32.830Z,5120
2017-10-17T09:47:32.825Z,5100
2017-10-17T09:48:32.852Z,5076
2017-10-17T09:49:33.154Z,5044
2017-10-17T09:50:33.165Z,5028
2017-10-17T09:51:32.137Z,5012
2017-10-17T09:52:33.175Z,4996
2017-10-17T09:53:33.007Z,4972
2017-10-17T09:54:32.835Z,4964
2017-10-17T09:55:33.139Z,4940
2017-10-17T09:56:33.173Z,4932
2017-10-17T09:57:32.488Z,4908
2017-10-17T09:58:33.753Z,4900
2017-10-17T09:59:33.134Z,4884
2017-10-17T10:00:33.157Z,4872
2017-10-17T10:01:33.355Z,4856
2017-10-17T10:02:33.331Z,4836
2017-10-17T10:03:33.121Z,4816
2017-10-17T10:04:32.977Z,4804
2017-10-17T10:05:33.157Z,4788
2017-10-17T10:06:32.910Z,4768
2017-10-17T10:07:32.801Z,4744
2017-10-17T10:08:33.094Z,4732
2017-10-17T10:09:32.796Z,4720
2017-10-17T10:10:33.090Z,4708
2017-10-17T10:11:33.413Z,4692
2017-10-17T10:12:32.758Z,4680
2017-10-17T10:13:33.358Z,4668
2017-10-17T10:14:33.094Z,4656
2017-10-17T10:15:33.088Z,4640
2017-10-17T10:16:33.424Z,4636
2017-10-17T10:17:32.791Z,4632
2017-10-17T10:18:32.764Z,4620
2017-10-17T10:19:33.091Z,4600
2017-10-17T10:20:33.079Z,4596
2017-10-17T10:21:33.408Z,4584
2017-10-17T10:22:32.745Z,4576
2017-10-17T10:23:33.098Z,4560
2017-10-17T10:24:32.734Z,4552
2017-10-17T10:25:32.759Z,4536
2017-10-17T10:26:33.061Z,4532
2017-10-17T10:27:33.088Z,4520
2017-10-17T10:28:33.047Z,4516
2017-10-17T10:29:33.092Z,4512
2017-10-17T10:30:33.076Z,4508
2017-10-17T10:31:33.081Z,4496
2017-10-17T10:32:32.709Z,4484
2017-10-17T10:33:33.053Z,4472
2017-10-17T10:34:32.729Z,4468
2017-10-17T10:35:33.066Z,4468
2017-10-17T10:36:33.085Z,4456
2017-10-17T10:37:33.336Z,4456
2017-10-17T10:38:33.061Z,4452
2017-10-17T10:39:33.078Z,4448
2017-10-17T10:40:33.022Z,4436
2017-10-17T10:41:33.078Z,4432
2017-10-17T10:42:33.029Z,4420
2017-10-17T10:43:33.057Z,4408
2017-10-17T10:44:32.695Z,4404
2017-10-17T10:45:33.059Z,4396
2017-10-17T10:46:32.700Z,4388
2017-10-17T10:47:33.050Z,4380
2017-10-17T10:48:32.681Z,4372
2017-10-17T10:49:33.020Z,4368
2017-10-17T10:50:32.702Z,4364
2017-10-17T10:51:33.041Z,4364
2017-10-17T10:52:33.006Z,4360
2017-10-17T10:53:32.757Z,4356
2017-10-17T10:54:32.355Z,4360
2017-10-17T10:55:32.698Z,4356
2017-10-17T10:56:33.000Z,4344
2017-10-17T10:57:33.035Z,4336
2017-10-17T10:58:33.293Z,4332
2017-10-17T10:59:33.021Z,4320
2017-10-17T11:00:32.984Z,4312
2017-10-17T11:01:33.034Z,4300
2017-10-17T11:02:33.018Z,4300
2017-10-17T11:03:33.033Z,4284
2017-10-17T11:04:32.988Z,4272
2017-10-17T11:05:32.682Z,4268
2017-10-17T11:06:33.002Z,4256
2017-10-17T11:07:32.990Z,4252
2017-10-17T11:08:33.236Z,4248
2017-10-17T11:09:33.015Z,4244
2017-10-17T11:10:32.987Z,4240
2017-10-17T11:11:33.013Z,4240
2017-10-17T11:12:32.972Z,4232
2017-10-17T11:13:33.004Z,4232
2017-10-17T11:14:32.962Z,4224
2017-10-17T11:15:33.008Z,4212
2017-10-17T11:16:32.296Z,4204
2017-10-17T11:17:33.023Z,4208
2017-10-17T11:18:32.991Z,4212
2017-10-17T11:19:32.653Z,4200
2017-10-17T11:20:32.947Z,4196
2017-10-17T11:21:32.956Z,4192
2017-10-17T11:22:32.643Z,4188
2017-10-17T11:23:32.653Z,4176
2017-10-17T11:24:32.667Z,4168
2017-10-17T11:25:32.947Z,4160
2017-10-17T11:26:32.973Z,4144
2017-10-17T11:27:32.939Z,4140
2017-10-17T11:28:32.984Z,4136
2017-10-17T11:29:32.280Z,4136
2017-10-17T11:30:32.300Z,4132
2017-10-17T11:31:32.997Z,4128
2017-10-17T11:32:32.954Z,4128
2017-10-17T11:33:32.972Z,4128
2017-10-17T11:34:32.958Z,4124
2017-10-17T11:35:31.951Z,4116
2017-10-17T11:36:32.596Z,4112
2017-10-17T11:37:32.925Z,4112
2017-10-17T11:38:32.615Z,4104
2017-10-17T11:39:32.919Z,4104
2017-10-17T11:40:32.969Z,4100
2017-10-17T11:41:32.917Z,4092
2017-10-17T11:42:32.966Z,4088
2017-10-17T11:43:32.912Z,4084
2017-10-17T11:44:32.967Z,4088
2017-10-17T11:45:32.911Z,4084
2017-10-17T11:46:32.951Z,4076
2017-10-17T11:47:32.933Z,4076
2017-10-17T11:48:32.616Z,4068
2017-10-17T11:49:32.915Z,4064
2017-10-17T11:50:32.940Z,4060
2017-10-17T11:51:32.574Z,4060
2017-10-17T11:52:32.608Z,4056
2017-10-17T11:53:32.934Z,4060
2017-10-17T11:54:32.917Z,4064
2017-10-17T11:55:32.572Z,4060
2017-10-17T11:56:32.601Z,4052
2017-10-17T11:57:32.899Z,4036
2017-10-17T11:58:32.921Z,4028
2017-10-17T11:59:32.752Z,4024
2017-10-17T12:00:36.103Z,4020
2017-10-17T12:01:33.291Z,4020
2017-10-17T12:02:33.327Z,4020
2017-10-17T12:03:32.979Z,4024
2017-10-17T12:04:33.184Z,4024
2017-10-17T12:05:33.124Z,4020
2017-10-17T12:06:32.888Z,4024
2017-10-17T12:07:32.559Z,4024
2017-10-17T12:08:32.585Z,4008
2017-10-17T12:09:32.930Z,4004
2017-10-17T12:10:32.889Z,4004
2017-10-17T12:11:32.461Z,3992
2017-10-17T12:12:32.533Z,3984
2017-10-17T12:13:32.901Z,3980
2017-10-17T12:14:32.882Z,3976
2017-10-17T12:15:32.909Z,3992
2017-10-17T12:16:32.858Z,4000
2017-10-17T12:17:32.564Z,3992
2017-10-17T12:18:32.859Z,3972
2017-10-17T12:19:33.113Z,3968
2017-10-17T12:20:32.518Z,3964
2017-10-17T12:21:32.894Z,3960
2017-10-17T12:22:32.870Z,3976
2017-10-17T12:23:32.524Z,3980
2017-10-17T12:24:32.554Z,3972
2017-10-17T12:25:32.552Z,3952
2017-10-17T12:26:32.529Z,3936
2017-10-17T12:27:32.854Z,3936
2017-10-17T12:28:32.855Z,3932
2017-10-17T12:29:32.880Z,3932
2017-10-17T12:30:32.860Z,3932
2017-10-17T12:31:32.887Z,3944
2017-10-17T12:32:32.834Z,3944
2017-10-17T12:33:32.880Z,3940
2017-10-17T12:34:32.852Z,3940
2017-10-17T12:35:32.505Z,3928
2017-10-17T12:36:32.872Z,3916
2017-10-17T12:37:32.823Z,3908
2017-10-17T12:38:32.842Z,3916
2017-10-17T12:39:32.838Z,3924
2017-10-17T12:40:32.868Z,3928
2017-10-17T12:41:32.860Z,3924
2017-10-17T12:42:32.506Z,3916
2017-10-17T12:43:32.169Z,3912
2017-10-17T12:44:32.830Z,3908
2017-10-17T12:45:32.899Z,3900
2017-10-17T12:46:32.494Z,3896
2017-10-17T12:47:32.158Z,3880
2017-10-17T12:48:32.858Z,3868
2017-10-17T12:49:32.817Z,3856
2017-10-17T12:50:32.858Z,3856
2017-10-17T12:51:32.826Z,3860
2017-10-17T12:52:32.851Z,3864
2017-10-17T12:53:32.807Z,3868
2017-10-17T12:54:32.830Z,3872
2017-10-17T12:55:32.812Z,3876
2017-10-17T12:56:32.858Z,3872
2017-10-17T12:57:32.838Z,3868
2017-10-17T12:58:32.813Z,3860
2017-10-17T12:59:32.821Z,3856
2017-10-17T13:00:32.131Z,3852
2017-10-17T13:01:32.493Z,3840
2017-10-17T13:02:32.816Z,3832
2017-10-17T13:03:32.842Z,3832
2017-10-17T13:04:32.454Z,3820
2017-10-17T13:05:32.841Z,3816
2017-10-17T13:06:32.784Z,3812
2017-10-17T13:07:32.477Z,3808
2017-10-17T13:08:32.787Z,3808
2017-10-17T13:09:32.496Z,3808
2017-10-17T13:10:32.484Z,3804
2017-10-17T13:11:32.815Z,3808
2017-10-17T13:12:32.788Z,3816
2017-10-17T13:13:33.929Z,3816
2017-10-17T13:14:32.793Z,3824
2017-10-17T13:15:32.451Z,3836
2017-10-17T13:16:32.447Z,3840
2017-10-17T13:17:32.842Z,3844
2017-10-17T13:18:33.037Z,3840
2017-10-17T13:19:32.825Z,3832
2017-10-17T13:20:32.767Z,3828
2017-10-17T13:21:32.806Z,3820
2017-10-17T13:22:32.430Z,3816
2017-10-17T13:23:33.054Z,3808
2017-10-17T13:24:32.437Z,3800
2017-10-17T13:25:32.472Z,3800
2017-10-17T13:26:33.185Z,3796
2017-10-17T13:27:32.793Z,3796
2017-10-17T13:28:32.750Z,3800
2017-10-17T13:29:32.754Z,3800
2017-10-17T13:30:32.777Z,3796
2017-10-17T13:31:32.792Z,3788
2017-10-17T13:32:32.788Z,3788
2017-10-17T13:33:32.752Z,3788
2017-10-17T13:34:32.780Z,3784
2017-10-17T13:35:32.413Z,3784
2017-10-17T13:36:32.450Z,3772
2017-10-17T13:37:32.747Z,3772
2017-10-17T13:38:32.772Z,3768
2017-10-17T13:39:32.429Z,3760
2017-10-17T13:40:32.743Z,3760
2017-10-17T13:41:32.107Z,3752
2017-10-17T13:42:32.759Z,3744
2017-10-17T13:43:32.757Z,3736
2017-10-17T13:44:32.974Z,3728
2017-10-17T13:45:32.755Z,3716
2017-10-17T13:46:32.760Z,3712
2017-10-17T13:47:32.796Z,3708
2017-10-17T13:48:32.774Z,3704
2017-10-17T13:49:32.067Z,3696
2017-10-17T13:50:32.412Z,3692